createdAt,value
2023-02-15T00:00:21.918Z,1.47
2023-02-15T00:02:50.567Z,1.10
2023-02-15T00:05:19.180Z,3.53
2023-02-15T00:07:47.672Z,2.30
2023-02-15T00:10:16.558Z,3.63
2023-02-15T00:12:46.668Z,2.87
2023-02-15T00:15:15.293Z,1.70
2023-02-15T00:17:43.745Z,2.97
2023-02-15T00:20:12.711Z,1.33
2023-02-15T00:22:41.223Z,5.00
2023-02-15T00:25:10.214Z,4.30
2023-02-15T00:27:38.662Z,1.73
2023-02-15T00:30:09.993Z,1.23
2023-02-15T00:32:38.506Z,1.60
2023-02-15T00:35:08.249Z,1.77
2023-02-15T00:37:36.838Z,2.63
2023-02-15T00:40:06.353Z,2.13
2023-02-15T00:42:34.950Z,2.17
2023-02-15T00:45:03.475Z,1.93
2023-02-15T00:47:33.337Z,3.43
2023-02-15T00:50:01.968Z,1.83
2023-02-15T00:52:30.512Z,4.37
2023-02-15T00:54:59.027Z,1.70
2023-02-15T00:57:29.687Z,2.67
2023-02-15T00:59:58.206Z,2.37
2023-02-15T01:02:26.813Z,2.00
2023-02-15T01:04:56.658Z,1.67
2023-02-15T01:07:25.367Z,2.60
2023-02-15T01:09:53.876Z,2.20
2023-02-15T01:12:22.488Z,2.63
2023-02-15T01:14:51.035Z,3.27
2023-02-15T01:17:19.483Z,1.30
2023-02-15T01:19:47.909Z,2.40
2023-02-15T01:22:17.854Z,1.10
2023-02-15T01:24:46.630Z,5.23
2023-02-15T01:27:15.192Z,1.67
2023-02-15T01:29:43.740Z,1.67
2023-02-15T01:32:12.319Z,1.43
2023-02-15T01:34:40.854Z,1.20
2023-02-15T01:37:09.375Z,2.03
2023-02-15T01:39:39.307Z,1.50
2023-02-15T01:42:07.827Z,1.17
2023-02-15T01:44:54.285Z,1.73
2023-02-15T01:47:30.115Z,8.63
2023-02-15T01:50:05.439Z,3.90
2023-02-15T01:52:35.912Z,1.60
2023-02-15T01:55:07.953Z,3.03
2023-02-15T01:57:36.924Z,2.00
2023-02-15T02:00:08.595Z,1.60
2023-02-15T02:02:37.691Z,2.13
2023-02-15T02:05:08.830Z,1.43
2023-02-15T02:07:41.592Z,1.47
2023-02-15T02:10:13.822Z,3.60
2023-02-15T02:12:44.534Z,1.10
2023-02-15T02:15:13.714Z,1.93
2023-02-15T02:17:56.969Z,1.63
2023-02-15T02:20:54.609Z,1.63
2023-02-15T02:23:35.081Z,3.30
2023-02-15T02:26:39.169Z,0.97
2023-02-15T02:29:50.009Z,2.17
2023-02-15T02:32:54.835Z,1.17
2023-02-15T02:35:32.010Z,1.27
2023-02-15T02:38:07.979Z,1.00
2023-02-15T02:40:46.541Z,1.33
2023-02-15T02:43:23.797Z,1.90
2023-02-15T02:45:59.331Z,2.60
2023-02-15T02:48:32.468Z,0.90
2023-02-15T02:51:02.620Z,3.10
2023-02-15T02:53:35.344Z,2.70
2023-02-15T02:56:12.280Z,1.60
2023-02-15T02:58:47.898Z,2.43
2023-02-15T03:01:22.528Z,2.03
2023-02-15T03:03:54.892Z,1.23
2023-02-15T03:06:31.206Z,1.40
2023-02-15T03:09:05.509Z,1.73
2023-02-15T03:11:34.301Z,1.00
2023-02-15T03:14:02.940Z,1.50
2023-02-15T03:16:31.847Z,2.83
2023-02-15T03:19:08.248Z,1.67
2023-02-15T03:21:41.169Z,1.60
2023-02-15T03:24:12.825Z,1.33
2023-02-15T03:26:44.797Z,1.50
2023-02-15T03:29:15.128Z,2.40
2023-02-15T03:31:48.947Z,1.00
2023-02-15T03:34:19.416Z,1.13
2023-02-15T03:36:55.298Z,5.90
2023-02-15T03:39:29.331Z,1.20
2023-02-15T03:42:02.700Z,1.13
2023-02-15T03:44:33.225Z,1.53
2023-02-15T03:47:08.215Z,4.43
2023-02-15T03:49:44.600Z,1.87
2023-02-15T03:52:15.028Z,0.97
2023-02-15T03:54:45.031Z,1.30
2023-02-15T03:57:33.854Z,1.13
2023-02-15T04:00:21.612Z,1.37
2023-02-15T04:03:13.320Z,3.53
2023-02-15T04:05:41.953Z,2.47
2023-02-15T04:08:12.934Z,1.33
2023-02-15T04:10:57.089Z,1.77
2023-02-15T04:13:31.790Z,1.03
2023-02-15T04:16:06.828Z,4.87
2023-02-15T04:18:55.687Z,1.23
2023-02-15T04:21:43.718Z,5.37
2023-02-15T04:24:32.590Z,1.47
2023-02-15T04:27:02.009Z,4.33
2023-02-15T04:29:30.732Z,2.03
2023-02-15T04:32:01.473Z,1.60
2023-02-15T04:34:30.166Z,2.77
2023-02-15T04:36:58.700Z,2.57
2023-02-15T04:39:28.572Z,1.57
2023-02-15T04:41:57.072Z,1.77
2023-02-15T04:44:25.626Z,2.17
2023-02-15T04:46:54.073Z,1.20
2023-02-15T04:49:22.601Z,2.07
2023-02-15T04:51:51.128Z,2.83
2023-02-15T04:54:19.676Z,1.73
2023-02-15T04:56:49.617Z,2.00
2023-02-15T04:59:18.288Z,2.90
2023-02-15T05:01:46.801Z,2.03
2023-02-15T05:04:15.650Z,1.73
2023-02-15T05:06:44.271Z,2.13
2023-02-15T05:09:15.589Z,3.70
2023-02-15T05:11:44.307Z,1.87
2023-02-15T05:14:14.305Z,1.33
2023-02-15T05:16:42.808Z,1.93
2023-02-15T05:19:11.314Z,1.13
2023-02-15T05:21:39.877Z,1.80
2023-02-15T05:24:29.387Z,1.77
2023-02-15T05:27:15.632Z,2.43
2023-02-15T05:29:45.509Z,2.00
2023-02-15T05:32:16.168Z,4.30
2023-02-15T05:34:44.831Z,1.73
2023-02-15T05:37:13.295Z,1.57
2023-02-15T05:39:41.833Z,13.60
2023-02-15T05:42:10.333Z,1.50
2023-02-15T05:44:38.818Z,2.80
2023-02-15T05:47:09.012Z,2.43
2023-02-15T05:49:37.489Z,2.87
2023-02-15T05:52:06.149Z,2.07
2023-02-15T05:54:34.641Z,2.47
2023-02-15T05:57:03.137Z,3.50
2023-02-15T05:59:31.714Z,2.90
2023-02-15T06:02:00.271Z,1.47
2023-02-15T06:04:30.652Z,3.20
2023-02-15T06:06:59.172Z,1.53
2023-02-15T06:09:27.621Z,2.53
2023-02-15T06:11:56.387Z,2.53
2023-02-15T06:14:24.938Z,2.33
2023-02-15T06:16:53.530Z,4.77
2023-02-15T06:19:23.619Z,1.73
2023-02-15T06:21:53.571Z,2.53
2023-02-15T06:24:22.115Z,3.10
2023-02-15T06:26:50.727Z,2.60
2023-02-15T06:29:19.268Z,2.10
2023-02-15T06:31:47.960Z,1.40
2023-02-15T06:34:16.931Z,1.23
2023-02-15T06:36:45.444Z,0.83
2023-02-15T06:39:15.384Z,7.43
2023-02-15T06:41:43.894Z,1.53
2023-02-15T06:44:12.635Z,0.97
2023-02-15T06:46:41.188Z,1.80
2023-02-15T06:49:09.740Z,4.30
2023-02-15T06:51:38.433Z,3.07
2023-02-15T06:54:07.187Z,1.00
2023-02-15T06:56:37.079Z,1.00
2023-02-15T06:59:05.564Z,1.83
2023-02-15T07:01:34.160Z,2.43
2023-02-15T07:04:03.025Z,5.37
2023-02-15T07:06:34.068Z,3.77
2023-02-15T07:09:02.916Z,4.97
2023-02-15T07:11:45.372Z,4.70
2023-02-15T07:14:15.223Z,3.27
2023-02-15T07:16:43.715Z,2.03
2023-02-15T07:19:12.512Z,1.17
2023-02-15T07:21:40.999Z,1.93
2023-02-15T07:24:09.712Z,5.37
2023-02-15T07:26:38.245Z,1.23
2023-02-15T07:29:06.794Z,3.77
2023-02-15T07:31:36.719Z,3.37
2023-02-15T07:34:05.172Z,2.87
2023-02-15T07:36:33.942Z,2.40
2023-02-15T07:39:02.509Z,3.70
2023-02-15T07:41:31.109Z,2.90
2023-02-15T07:43:59.642Z,2.97
2023-02-15T07:46:28.936Z,3.50
2023-02-15T07:48:58.908Z,2.10
2023-02-15T07:51:27.394Z,2.73
2023-02-15T07:53:56.270Z,1.20
2023-02-15T07:56:24.920Z,7.33
2023-02-15T07:58:53.561Z,3.57
2023-02-15T08:01:24.431Z,4.33
2023-02-15T08:03:53.468Z,2.47
2023-02-15T08:06:25.951Z,7.53
2023-02-15T08:08:55.054Z,3.47
2023-02-15T08:11:30.127Z,4.80
2023-02-15T08:14:01.145Z,3.53
2023-02-15T08:16:32.580Z,1.60
2023-02-15T08:19:02.664Z,4.43
2023-02-15T08:21:33.451Z,6.70
2023-02-15T08:24:02.921Z,5.00
2023-02-15T08:26:32.977Z,2.03
2023-02-15T08:29:02.641Z,3.00
2023-02-15T08:31:31.804Z,1.47
2023-02-15T08:34:00.869Z,2.03
2023-02-15T08:36:33.499Z,2.10
2023-02-15T08:39:03.516Z,2.37
2023-02-15T08:41:34.915Z,2.63
2023-02-15T08:44:05.630Z,2.37
2023-02-15T08:46:36.492Z,4.37
2023-02-15T08:49:06.116Z,3.23
2023-02-15T08:51:37.695Z,2.13
2023-02-15T08:54:08.154Z,1.20
2023-02-15T08:56:38.790Z,3.33
2023-02-15T08:59:09.034Z,3.07
2023-02-15T09:01:37.845Z,4.10
2023-02-15T09:04:09.604Z,1.40
2023-02-15T09:06:40.810Z,1.73
2023-02-15T09:09:10.154Z,1.47
2023-02-15T09:11:40.461Z,3.57
2023-02-15T09:14:11.110Z,2.43
2023-02-15T09:16:41.835Z,1.50
2023-02-15T09:19:10.523Z,5.20
2023-02-15T09:21:41.014Z,2.50
2023-02-15T09:24:11.166Z,2.93
2023-02-15T09:26:41.706Z,2.67
2023-02-15T09:29:11.424Z,3.03
2023-02-15T09:31:44.848Z,2.63
2023-02-15T09:34:14.015Z,2.00
2023-02-15T09:36:44.114Z,2.17
2023-02-15T09:39:14.458Z,10.33
2023-02-15T09:42:12.969Z,3.23
2023-02-15T09:45:04.447Z,2.03
2023-02-15T09:48:09.180Z,5.93
2023-02-15T09:50:50.387Z,3.33
2023-02-15T09:53:48.633Z,4.50
2023-02-15T09:56:22.212Z,3.60
2023-02-15T09:59:03.279Z,2.43
2023-02-15T10:01:40.144Z,8.13
2023-02-15T10:04:26.070Z,5.17
2023-02-15T10:07:05.070Z,3.17
2023-02-15T10:09:50.049Z,5.03
2023-02-15T10:12:36.582Z,2.57
2023-02-15T10:15:36.548Z,3.90
2023-02-15T10:18:21.424Z,2.37
2023-02-15T10:20:58.538Z,2.37
2023-02-15T10:23:40.621Z,2.50
2023-02-15T10:26:18.687Z,2.07
2023-02-15T10:28:51.140Z,3.93
2023-02-15T10:31:28.503Z,2.87
2023-02-15T10:34:19.614Z,4.13
2023-02-15T10:37:08.097Z,3.27
2023-02-15T10:39:48.143Z,2.47
2023-02-15T10:42:32.633Z,4.50
2023-02-15T10:45:16.719Z,3.37
2023-02-15T10:48:03.864Z,3.10
2023-02-15T10:50:42.504Z,6.07
2023-02-15T10:53:28.429Z,2.63
2023-02-15T10:56:05.073Z,3.63
2023-02-15T10:58:51.764Z,4.63
2023-02-15T11:01:26.416Z,2.73
2023-02-15T11:04:11.821Z,4.07
2023-02-15T11:06:49.179Z,3.60
2023-02-15T11:09:21.674Z,3.67
2023-02-15T11:11:53.662Z,3.43
2023-02-15T11:14:40.650Z,4.13
2023-02-15T11:17:14.389Z,8.63
2023-02-15T11:19:49.797Z,3.93
2023-02-15T11:22:18.508Z,2.63
2023-02-15T11:24:49.460Z,3.67
2023-02-15T11:27:25.495Z,3.50
2023-02-15T11:30:02.160Z,5.30
2023-02-15T11:32:33.333Z,5.80
2023-02-15T11:35:06.468Z,5.27
2023-02-15T11:37:41.483Z,5.07
2023-02-15T11:40:21.379Z,2.43
2023-02-15T11:42:51.937Z,2.77
2023-02-15T11:45:30.253Z,3.93
2023-02-15T11:48:00.398Z,5.17
2023-02-15T11:50:32.968Z,4.83
2023-02-15T11:53:05.229Z,5.87
2023-02-15T11:55:36.053Z,3.60
2023-02-15T11:58:14.151Z,8.80
2023-02-15T12:00:46.993Z,3.13
2023-02-15T12:03:23.422Z,5.77
2023-02-15T12:05:56.724Z,3.50
2023-02-15T12:08:26.050Z,4.30
2023-02-15T12:11:04.882Z,4.47
2023-02-15T12:13:33.383Z,2.93
2023-02-15T12:16:13.812Z,2.73
2023-02-15T12:18:45.288Z,4.93
2023-02-15T12:21:17.514Z,3.27
2023-02-15T12:23:50.635Z,4.10
2023-02-15T12:26:27.700Z,4.20
2023-02-15T12:29:02.500Z,8.87
2023-02-15T12:31:38.091Z,5.33
2023-02-15T12:34:14.298Z,4.20
2023-02-15T12:36:47.895Z,7.00
2023-02-15T12:39:23.160Z,3.20
2023-02-15T12:42:04.585Z,6.37
2023-02-15T12:44:34.842Z,4.00
2023-02-15T12:47:06.819Z,3.20
2023-02-15T12:49:36.659Z,5.17
2023-02-15T12:52:08.855Z,4.77
2023-02-15T12:54:42.948Z,5.63
2023-02-15T12:57:29.836Z,5.37
2023-02-15T12:59:59.802Z,4.90
2023-02-15T13:02:33.435Z,3.63
2023-02-15T13:05:17.199Z,3.73
2023-02-15T13:07:50.785Z,4.17
2023-02-15T13:10:26.417Z,3.37
2023-02-15T13:12:55.568Z,2.77
2023-02-15T13:15:36.485Z,4.93
2023-02-15T13:18:12.535Z,6.17
2023-02-15T13:20:42.774Z,5.63
2023-02-15T13:23:25.169Z,5.47
2023-02-15T13:25:54.541Z,3.97
2023-02-15T13:28:28.123Z,4.33
2023-02-15T13:30:57.922Z,3.87
2023-02-15T13:33:33.443Z,5.07
2023-02-15T13:36:11.458Z,3.70
2023-02-15T13:38:57.727Z,3.93
2023-02-15T13:41:34.537Z,6.40
2023-02-15T13:44:13.340Z,8.33
2023-02-15T13:47:04.405Z,5.90
2023-02-15T13:49:49.325Z,5.93
2023-02-15T13:52:22.917Z,6.07
2023-02-15T13:55:28.241Z,7.93
2023-02-15T13:58:36.615Z,8.30
2023-02-15T14:01:12.538Z,7.50
2023-02-15T14:04:19.005Z,6.50
2023-02-15T14:07:27.518Z,7.60
2023-02-15T14:10:09.311Z,7.80
2023-02-15T14:12:50.066Z,6.70
2023-02-15T14:15:34.461Z,10.40
2023-02-15T14:18:14.542Z,9.27
2023-02-15T14:20:52.827Z,7.47
2023-02-15T14:23:39.892Z,9.33
2023-02-15T14:26:16.451Z,9.40
2023-02-15T14:28:53.169Z,7.60
2023-02-15T14:31:31.130Z,8.97
2023-02-15T14:34:00.436Z,6.80
2023-02-15T14:36:31.547Z,7.47
2023-02-15T14:39:35.745Z,9.03
2023-02-15T14:42:12.772Z,7.63
2023-02-15T14:44:47.470Z,7.53
2023-02-15T14:47:22.188Z,9.47
2023-02-15T14:49:50.713Z,9.90
2023-02-15T14:52:19.317Z,6.83
2023-02-15T14:55:33.329Z,7.47
2023-02-15T14:58:01.878Z,5.73
2023-02-15T15:00:43.814Z,8.37
2023-02-15T15:03:25.180Z,6.87
2023-02-15T15:06:00.620Z,9.50
2023-02-15T15:08:35.145Z,8.73
2023-02-15T15:11:43.366Z,8.17
2023-02-15T15:14:33.050Z,10.23
2023-02-15T15:17:02.900Z,4.40
2023-02-15T15:20:00.134Z,6.60
2023-02-15T15:22:30.495Z,9.73
2023-02-15T15:25:00.083Z,7.53
2023-02-15T15:27:51.270Z,7.67
2023-02-15T15:30:55.802Z,7.13
2023-02-15T15:34:12.217Z,6.73
2023-02-15T15:37:18.062Z,4.37
2023-02-15T15:40:28.217Z,4.23
2023-02-15T15:43:43.415Z,3.87
2023-02-15T15:46:33.022Z,2.30
2023-02-15T15:49:08.846Z,2.43
2023-02-15T15:51:41.198Z,4.30
2023-02-15T15:54:17.371Z,5.33
2023-02-15T15:56:50.534Z,4.20
2023-02-15T15:59:25.158Z,3.03
2023-02-15T16:01:54.498Z,2.67
2023-02-15T16:04:30.758Z,4.00
2023-02-15T16:07:00.243Z,3.63
2023-02-15T16:09:29.950Z,4.07
2023-02-15T16:12:01.372Z,3.30
2023-02-15T16:14:36.047Z,4.90
2023-02-15T16:17:07.255Z,2.80
2023-02-15T16:19:40.207Z,4.03
2023-02-15T16:22:16.165Z,4.03
2023-02-15T16:25:06.379Z,3.30
2023-02-15T16:27:40.564Z,7.80
2023-02-15T16:30:29.431Z,4.00
2023-02-15T16:33:06.124Z,2.77
2023-02-15T16:35:38.292Z,3.07
2023-02-15T16:38:07.552Z,5.67
2023-02-15T16:40:50.254Z,22.50
2023-02-15T16:43:25.223Z,25.97
2023-02-15T16:45:56.140Z,36.93
2023-02-15T16:48:28.604Z,34.27
2023-02-15T16:51:01.576Z,48.00
2023-02-15T16:53:31.657Z,30.53
2023-02-15T16:56:02.922Z,31.20
2023-02-15T16:58:38.341Z,35.07
2023-02-15T17:01:11.008Z,30.27
2023-02-15T17:03:40.987Z,19.37
2023-02-15T17:06:26.634Z,3.17
2023-02-15T17:09:04.805Z,7.00
2023-02-15T17:11:37.899Z,4.40
2023-02-15T17:14:28.924Z,5.37
2023-02-15T17:17:05.627Z,5.40
2023-02-15T17:19:42.744Z,4.13
2023-02-15T17:22:22.170Z,12.23
2023-02-15T17:24:59.224Z,17.43
2023-02-15T17:27:31.507Z,10.87
2023-02-15T17:30:02.571Z,14.87
2023-02-15T17:32:34.185Z,8.70
2023-02-15T17:35:11.143Z,19.27
2023-02-15T17:37:49.428Z,11.10
2023-02-15T17:40:26.802Z,5.47
2023-02-15T17:42:55.573Z,25.37
2023-02-15T17:45:27.965Z,24.03
2023-02-15T17:47:58.053Z,15.83
2023-02-15T17:50:28.519Z,4.50
2023-02-15T17:52:59.763Z,23.70
2023-02-15T17:55:36.132Z,12.20
2023-02-15T17:58:07.036Z,19.63
2023-02-15T18:00:57.252Z,9.43
2023-02-15T18:03:48.217Z,5.40
2023-02-15T18:06:34.670Z,2.50
2023-02-15T18:09:22.370Z,2.03
2023-02-15T18:11:51.706Z,4.00
2023-02-15T18:14:20.210Z,7.27
2023-02-15T18:16:48.805Z,9.13
2023-02-15T18:19:21.011Z,12.87
2023-02-15T18:21:49.785Z,5.50
2023-02-15T18:24:22.042Z,3.90
2023-02-15T18:26:51.304Z,3.73
2023-02-15T18:29:20.076Z,4.67
2023-02-15T18:31:52.828Z,3.37
2023-02-15T18:34:28.129Z,2.77
2023-02-15T18:36:57.870Z,3.40
2023-02-15T18:39:37.110Z,3.40
2023-02-15T18:42:06.027Z,3.80
2023-02-15T18:44:34.590Z,10.00
2023-02-15T18:47:03.225Z,6.00
2023-02-15T18:49:31.737Z,6.33
2023-02-15T18:52:00.261Z,8.37
2023-02-15T18:54:30.303Z,4.00
2023-02-15T18:57:01.709Z,2.50
2023-02-15T18:59:32.504Z,2.50
2023-02-15T19:02:01.394Z,3.50
2023-02-15T19:04:29.871Z,3.03
2023-02-15T19:06:58.505Z,2.40
2023-02-15T19:09:27.788Z,3.77
2023-02-15T19:11:59.823Z,4.03
2023-02-15T19:14:31.280Z,4.20
2023-02-15T19:17:01.328Z,3.90
2023-02-15T19:19:29.912Z,3.90
2023-02-15T19:21:58.608Z,4.53
2023-02-15T19:24:35.244Z,5.63
2023-02-15T19:27:05.772Z,2.23
2023-02-15T19:29:34.489Z,3.17
2023-02-15T19:32:03.576Z,3.07
2023-02-15T19:34:32.280Z,2.93
2023-02-15T19:37:01.260Z,5.20
2023-02-15T19:39:33.926Z,3.60
2023-02-15T19:42:04.044Z,5.73
2023-02-15T19:44:32.614Z,4.97
2023-02-15T19:47:01.094Z,5.13
2023-02-15T19:49:29.873Z,4.80
2023-02-15T19:51:59.769Z,2.90
2023-02-15T19:54:31.869Z,2.50
2023-02-15T19:57:02.179Z,2.03
2023-02-15T19:59:33.993Z,3.07
2023-02-15T20:02:02.582Z,4.17
2023-02-15T20:04:31.444Z,3.53
2023-02-15T20:07:02.543Z,2.77
2023-02-15T20:09:33.820Z,3.10
2023-02-15T20:12:02.428Z,2.30
2023-02-15T20:14:32.397Z,1.23
2023-02-15T20:17:00.954Z,2.97
2023-02-15T20:19:29.464Z,3.27
2023-02-15T20:21:59.521Z,2.93
2023-02-15T20:24:30.299Z,2.63
2023-02-15T20:26:58.816Z,2.77
2023-02-15T20:29:27.353Z,2.87
2023-02-15T20:32:01.227Z,2.97
2023-02-15T20:34:29.813Z,2.77
2023-02-15T20:36:58.869Z,2.20
2023-02-15T20:39:27.411Z,2.50
2023-02-15T20:41:56.307Z,3.00
2023-02-15T20:44:26.861Z,3.13
2023-02-15T20:46:58.529Z,2.23
2023-02-15T20:49:28.634Z,3.43
2023-02-15T20:51:58.670Z,1.63
2023-02-15T20:54:30.176Z,2.57
2023-02-15T20:56:59.166Z,4.77
2023-02-15T20:59:30.524Z,1.83
2023-02-15T21:02:03.226Z,2.73
2023-02-15T21:04:34.453Z,1.53
2023-02-15T21:07:03.289Z,3.97
2023-02-15T21:09:31.929Z,2.47
2023-02-15T21:12:02.630Z,2.20
2023-02-15T21:14:31.261Z,2.43
2023-02-15T21:17:01.656Z,1.60
2023-02-15T21:19:31.682Z,2.27
2023-02-15T21:22:00.785Z,5.33
2023-02-15T21:24:31.382Z,3.53
2023-02-15T21:27:04.198Z,5.30
2023-02-15T21:29:32.722Z,13.10
2023-02-15T21:32:04.030Z,63.07
2023-02-15T21:34:33.031Z,79.53
2023-02-15T21:37:02.073Z,87.27
2023-02-15T21:39:33.206Z,83.53
2023-02-15T21:42:19.477Z,67.17
2023-02-15T21:45:06.114Z,38.10
2023-02-15T21:47:54.229Z,66.80
2023-02-15T21:50:42.844Z,40.37
2023-02-15T21:53:14.326Z,37.70
2023-02-15T21:55:43.132Z,29.77
2023-02-15T21:58:21.096Z,23.80
2023-02-15T22:00:50.445Z,30.50
2023-02-15T22:03:20.505Z,31.20
2023-02-15T22:05:49.366Z,44.67
2023-02-15T22:08:18.442Z,19.87
2023-02-15T22:10:47.999Z,5.10
2023-02-15T22:13:20.845Z,16.83
2023-02-15T22:15:49.533Z,27.67
2023-02-15T22:18:24.805Z,10.60
2023-02-15T22:20:54.260Z,7.93
2023-02-15T22:23:23.150Z,4.50
2023-02-15T22:25:56.036Z,5.60
2023-02-15T22:28:31.046Z,12.57
2023-02-15T22:31:00.117Z,7.73
2023-02-15T22:33:35.206Z,10.50
2023-02-15T22:36:04.397Z,3.63
2023-02-15T22:38:32.960Z,6.03
2023-02-15T22:41:05.959Z,8.30
2023-02-15T22:43:40.749Z,10.70
2023-02-15T22:46:14.631Z,13.50
2023-02-15T22:48:45.332Z,16.30
2023-02-15T22:51:14.968Z,19.17
2023-02-15T22:53:43.807Z,8.33
2023-02-15T22:56:19.024Z,15.50
2023-02-15T22:58:50.295Z,12.50
2023-02-15T23:01:27.472Z,20.17
2023-02-15T23:03:57.397Z,5.37
2023-02-15T23:06:26.091Z,6.57
2023-02-15T23:08:54.619Z,7.87
2023-02-15T23:11:23.215Z,5.43
2023-02-15T23:13:51.712Z,7.37
2023-02-15T23:16:20.559Z,3.53
2023-02-15T23:18:49.933Z,3.60
2023-02-15T23:21:23.596Z,2.07
2023-02-15T23:23:53.838Z,3.93
2023-02-15T23:26:24.545Z,4.83
2023-02-15T23:28:53.949Z,6.73
2023-02-15T23:31:24.468Z,5.60
2023-02-15T23:33:54.114Z,3.80
2023-02-15T23:36:30.859Z,3.37
2023-02-15T23:39:21.991Z,2.03
2023-02-15T23:41:49.616Z,9.03
2023-02-15T23:44:20.017Z,1.73
2023-02-15T23:46:49.766Z,2.10
2023-02-15T23:49:20.535Z,3.03
2023-02-15T23:51:52.310Z,1.57
2023-02-15T23:54:22.431Z,1.97
2023-02-15T23:56:53.707Z,2.20
2023-02-15T23:59:25.924Z,1.37
